sensor_id;sensor_type;location;lat;lon;timestamp;pressure;altitude;pressure_sealevel;temperature;humidity
51452;BME280;37521;52.020;-1.740;2024-02-26T00:00:24;98381.34;;;2.05;100.00
51452;BME280;37521;52.020;-1.740;2024-02-26T00:02:53;98376.06;;;2.07;100.00
51452;BME280;37521;52.020;-1.740;2024-02-26T00:05:22;98382.16;;;2.07;100.00
51452;BME280;37521;52.020;-1.740;2024-02-26T00:07:52;98385.72;;;2.05;100.00
51452;BME280;37521;52.020;-1.740;2024-02-26T00:10:21;98384.00;;;2.04;100.00
51452;BME280;37521;52.020;-1.740;2024-02-26T00:12:49;98392.00;;;1.99;100.00
51452;BME280;37521;52.020;-1.740;2024-02-26T00:15:18;98405.00;;;1.99;100.00
51452;BME280;37521;52.020;-1.740;2024-02-26T00:17:47;98401.56;;;1.99;100.00
51452;BME280;37521;52.020;-1.740;2024-02-26T00:20:16;98404.22;;;1.97;100.00
51452;BME280;37521;52.020;-1.740;2024-02-26T00:22:44;98414.63;;;1.97;100.00
51452;BME280;37521;52.020;-1.740;2024-02-26T00:25:14;98417.28;;;1.96;100.00
51452;BME280;37521;52.020;-1.740;2024-02-26T00:27:43;98413.03;;;1.93;100.00
51452;BME280;37521;52.020;-1.740;2024-02-26T00:30:12;98423.34;;;1.96;100.00
51452;BME280;37521;52.020;-1.740;2024-02-26T00:32:41;98429.34;;;1.98;100.00
51452;BME280;37521;52.020;-1.740;2024-02-26T00:35:09;98434.59;;;1.97;100.00
51452;BME280;37521;52.020;-1.740;2024-02-26T00:37:38;98427.72;;;1.96;100.00
51452;BME280;37521;52.020;-1.740;2024-02-26T00:40:07;98436.44;;;1.95;100.00
51452;BME280;37521;52.020;-1.740;2024-02-26T00:42:38;98449.47;;;1.93;100.00
51452;BME280;37521;52.020;-1.740;2024-02-26T00:45:12;98457.41;;;1.90;100.00
51452;BME280;37521;52.020;-1.740;2024-02-26T00:47:41;98456.63;;;1.88;100.00
51452;BME280;37521;52.020;-1.740;2024-02-26T00:50:11;98448.84;;;1.86;100.00
51452;BME280;37521;52.020;-1.740;2024-02-26T00:52:40;98462.03;;;1.82;100.00
51452;BME280;37521;52.020;-1.740;2024-02-26T00:55:09;98473.38;;;1.81;100.00
51452;BME280;37521;52.020;-1.740;2024-02-26T00:57:39;98476.06;;;1.78;100.00
51452;BME280;37521;52.020;-1.740;2024-02-26T01:00:09;98477.88;;;1.76;100.00
51452;BME280;37521;52.020;-1.740;2024-02-26T01:02:39;98488.28;;;1.76;100.00
51452;BME280;37521;52.020;-1.740;2024-02-26T01:05:09;98482.09;;;1.78;100.00
51452;BME280;37521;52.020;-1.740;2024-02-26T01:07:38;98508.97;;;1.79;100.00
51452;BME280;37521;52.020;-1.740;2024-02-26T01:10:07;98498.56;;;1.79;100.00
51452;BME280;37521;52.020;-1.740;2024-02-26T01:12:36;98503.78;;;1.79;100.00
51452;BME280;37521;52.020;-1.740;2024-02-26T01:15:07;98510.66;;;1.80;100.00
51452;BME280;37521;52.020;-1.740;2024-02-26T01:17:37;98512.34;;;1.82;100.00
51452;BME280;37521;52.020;-1.740;2024-02-26T01:20:06;98517.47;;;1.84;100.00
51452;BME280;37521;52.020;-1.740;2024-02-26T01:22:36;98512.16;;;1.87;100.00
51452;BME280;37521;52.020;-1.740;2024-02-26T01:25:06;98532.81;;;1.91;100.00
51452;BME280;37521;52.020;-1.740;2024-02-26T01:27:37;98527.56;;;1.93;100.00
51452;BME280;37521;52.020;-1.740;2024-02-26T01:30:08;98531.88;;;1.94;100.00
51452;BME280;37521;52.020;-1.740;2024-02-26T01:32:37;98533.59;;;1.94;100.00
51452;BME280;37521;52.020;-1.740;2024-02-26T01:35:06;98544.03;;;1.94;100.00
51452;BME280;37521;52.020;-1.740;2024-02-26T01:37:37;98541.31;;;1.97;100.00
51452;BME280;37521;52.020;-1.740;2024-02-26T01:40:07;98551.63;;;2.00;100.00
51452;BME280;37521;52.020;-1.740;2024-02-26T01:42:38;98555.97;;;1.99;100.00
51452;BME280;37521;52.020;-1.740;2024-02-26T01:45:13;98561.19;;;1.99;100.00
51452;BME280;37521;52.020;-1.740;2024-02-26T01:47:49;98571.72;;;1.96;100.00
51452;BME280;37521;52.020;-1.740;2024-02-26T01:50:19;98577.81;;;1.95;100.00
51452;BME280;37521;52.020;-1.740;2024-02-26T01:52:50;98579.59;;;1.93;100.00
51452;BME280;37521;52.020;-1.740;2024-02-26T01:55:20;98577.91;;;1.92;100.00
51452;BME280;37521;52.020;-1.740;2024-02-26T01:57:51;98587.41;;;1.93;100.00
51452;BME280;37521;52.020;-1.740;2024-02-26T02:00:23;98588.25;;;1.95;100.00
51452;BME280;37521;52.020;-1.740;2024-02-26T02:02:52;98583.06;;;1.94;100.00
51452;BME280;37521;52.020;-1.740;2024-02-26T02:05:22;98609.06;;;1.95;100.00
51452;BME280;37521;52.020;-1.740;2024-02-26T02:07:51;98598.75;;;1.92;100.00
51452;BME280;37521;52.020;-1.740;2024-02-26T02:10:20;98602.25;;;1.91;100.00
51452;BME280;37521;52.020;-1.740;2024-02-26T02:12:53;98612.66;;;1.91;100.00
51452;BME280;37521;52.020;-1.740;2024-02-26T02:15:24;98616.09;;;1.91;100.00
51452;BME280;37521;52.020;-1.740;2024-02-26T02:17:53;98606.59;;;1.90;100.00
51452;BME280;37521;52.020;-1.740;2024-02-26T02:20:25;98622.22;;;1.90;100.00
51452;BME280;37521;52.020;-1.740;2024-02-26T02:22:54;98614.56;;;1.86;100.00
51452;BME280;37521;52.020;-1.740;2024-02-26T02:25:23;98625.78;;;1.88;100.00
51452;BME280;37521;52.020;-1.740;2024-02-26T02:27:53;98630.88;;;1.91;100.00
51452;BME280;37521;52.020;-1.740;2024-02-26T02:30:25;98630.09;;;1.89;100.00
51452;BME280;37521;52.020;-1.740;2024-02-26T02:32:55;98627.47;;;1.89;100.00
51452;BME280;37521;52.020;-1.740;2024-02-26T02:35:27;98638.81;;;1.88;100.00
51452;BME280;37521;52.020;-1.740;2024-02-26T02:37:57;98638.81;;;1.86;100.00
51452;BME280;37521;52.020;-1.740;2024-02-26T02:40:26;98655.41;;;1.84;100.00
51452;BME280;37521;52.020;-1.740;2024-02-26T02:42:54;98652.84;;;1.82;100.00
51452;BME280;37521;52.020;-1.740;2024-02-26T02:45:23;98654.50;;;1.85;100.00
51452;BME280;37521;52.020;-1.740;2024-02-26T02:47:52;98650.16;;;1.85;100.00
51452;BME280;37521;52.020;-1.740;2024-02-26T02:50:21;98670.13;;;1.85;100.00
51452;BME280;37521;52.020;-1.740;2024-02-26T02:52:51;98666.81;;;1.80;100.00
51452;BME280;37521;52.020;-1.740;2024-02-26T02:55:19;98683.38;;;1.77;100.00
51452;BME280;37521;52.020;-1.740;2024-02-26T02:57:48;98682.53;;;1.77;100.00
51452;BME280;37521;52.020;-1.740;2024-02-26T03:00:17;98686.03;;;1.76;100.00
51452;BME280;37521;52.020;-1.740;2024-02-26T03:02:46;98694.75;;;1.75;100.00
51452;BME280;37521;52.020;-1.740;2024-02-26T03:05:15;98712.97;;;1.75;100.00
51452;BME280;37521;52.020;-1.740;2024-02-26T03:07:44;98729.56;;;1.71;100.00
51452;BME280;37521;52.020;-1.740;2024-02-26T03:10:14;98724.47;;;1.68;100.00
51452;BME280;37521;52.020;-1.740;2024-02-26T03:12:43;98736.75;;;1.62;100.00
51452;BME280;37521;52.020;-1.740;2024-02-26T03:15:12;98728.13;;;1.60;100.00
51452;BME280;37521;52.020;-1.740;2024-02-26T03:17:41;98744.75;;;1.56;100.00
51452;BME280;37521;52.020;-1.740;2024-02-26T03:20:10;98744.13;;;1.48;100.00
51452;BME280;37521;52.020;-1.740;2024-02-26T03:22:39;98747.69;;;1.44;100.00
51452;BME280;37521;52.020;-1.740;2024-02-26T03:25:08;98755.38;;;1.49;100.00
51452;BME280;37521;52.020;-1.740;2024-02-26T03:27:38;98754.44;;;1.51;100.00
51452;BME280;37521;52.020;-1.740;2024-02-26T03:30:08;98756.97;;;1.53;100.00
51452;BME280;37521;52.020;-1.740;2024-02-26T03:32:37;98777.75;;;1.54;100.00
51452;BME280;37521;52.020;-1.740;2024-02-26T03:35:06;98778.44;;;1.59;100.00
51452;BME280;37521;52.020;-1.740;2024-02-26T03:37:35;98783.66;;;1.59;100.00
51452;BME280;37521;52.020;-1.740;2024-02-26T03:40:05;98792.19;;;1.64;100.00
51452;BME280;37521;52.020;-1.740;2024-02-26T03:42:34;98806.00;;;1.67;100.00
51452;BME280;37521;52.020;-1.740;2024-02-26T03:45:05;98807.72;;;1.68;100.00
51452;BME280;37521;52.020;-1.740;2024-02-26T03:47:34;98811.13;;;1.70;100.00
51452;BME280;37521;52.020;-1.740;2024-02-26T03:50:04;98824.88;;;1.73;100.00
51452;BME280;37521;52.020;-1.740;2024-02-26T03:52:33;98824.00;;;1.74;100.00
51452;BME280;37521;52.020;-1.740;2024-02-26T03:55:02;98839.63;;;1.74;100.00
51452;BME280;37521;52.020;-1.740;2024-02-26T03:57:31;98835.22;;;1.76;100.00
51452;BME280;37521;52.020;-1.740;2024-02-26T03:59:59;98841.31;;;1.75;100.00
51452;BME280;37521;52.020;-1.740;2024-02-26T04:02:38;98851.72;;;1.75;100.00
51452;BME280;37521;52.020;-1.740;2024-02-26T04:05:09;98861.19;;;1.78;100.00
51452;BME280;37521;52.020;-1.740;2024-02-26T04:07:38;98849.16;;;1.74;100.00
51452;BME280;37521;52.020;-1.740;2024-02-26T04:10:11;98850.88;;;1.75;100.00
51452;BME280;37521;52.020;-1.740;2024-02-26T04:12:40;98863.84;;;1.76;100.00
51452;BME280;37521;52.020;-1.740;2024-02-26T04:15:09;98871.69;;;1.75;100.00
51452;BME280;37521;52.020;-1.740;2024-02-26T04:17:40;98875.16;;;1.74;100.00
51452;BME280;37521;52.020;-1.740;2024-02-26T04:20:14;98879.53;;;1.73;100.00
51452;BME280;37521;52.020;-1.740;2024-02-26T04:22:44;98870.06;;;1.71;100.00
51452;BME280;37521;52.020;-1.740;2024-02-26T04:25:13;98883.06;;;1.71;100.00
51452;BME280;37521;52.020;-1.740;2024-02-26T04:27:42;98886.41;;;1.76;100.00
51452;BME280;37521;52.020;-1.740;2024-02-26T04:30:11;98896.75;;;1.77;100.00
51452;BME280;37521;52.020;-1.740;2024-02-26T04:32:41;98904.44;;;1.82;100.00
51452;BME280;37521;52.020;-1.740;2024-02-26T04:35:10;98912.22;;;1.83;100.00
51452;BME280;37521;52.020;-1.740;2024-02-26T04:37:39;98913.91;;;1.84;100.00
51452;BME280;37521;52.020;-1.740;2024-02-26T04:40:08;98918.25;;;1.84;100.00
51452;BME280;37521;52.020;-1.740;2024-02-26T04:42:37;98912.16;;;1.85;100.00
51452;BME280;37521;52.020;-1.740;2024-02-26T04:45:06;98940.72;;;1.88;100.00
51452;BME280;37521;52.020;-1.740;2024-02-26T04:47:35;98947.63;;;1.89;100.00
51452;BME280;37521;52.020;-1.740;2024-02-26T04:50:06;98932.00;;;1.89;100.00
51452;BME280;37521;52.020;-1.740;2024-02-26T04:52:36;98958.03;;;1.89;100.00
51452;BME280;37521;52.020;-1.740;2024-02-26T04:55:05;98951.06;;;1.89;100.00
51452;BME280;37521;52.020;-1.740;2024-02-26T04:57:34;98949.31;;;1.90;100.00
51452;BME280;37521;52.020;-1.740;2024-02-26T05:00:03;98964.94;;;1.90;100.00
51452;BME280;37521;52.020;-1.740;2024-02-26T05:02:32;98968.44;;;1.89;100.00
51452;BME280;37521;52.020;-1.740;2024-02-26T05:05:07;98974.63;;;1.85;100.00
51452;BME280;37521;52.020;-1.740;2024-02-26T05:07:40;98973.78;;;1.84;100.00
51452;BME280;37521;52.020;-1.740;2024-02-26T05:10:09;98982.44;;;1.85;100.00
51452;BME280;37521;52.020;-1.740;2024-02-26T05:12:38;98994.53;;;1.86;100.00
51452;BME280;37521;52.020;-1.740;2024-02-26T05:15:09;98991.94;;;1.86;100.00
51452;BME280;37521;52.020;-1.740;2024-02-26T05:17:38;98989.31;;;1.87;100.00
51452;BME280;37521;52.020;-1.740;2024-02-26T05:20:09;99002.22;;;1.90;100.00
51452;BME280;37521;52.020;-1.740;2024-02-26T05:22:38;99020.41;;;1.92;100.00
51452;BME280;37521;52.020;-1.740;2024-02-26T05:25:07;99016.91;;;1.93;100.00
51452;BME280;37521;52.020;-1.740;2024-02-26T05:27:36;99035.91;;;1.97;100.00
51452;BME280;37521;52.020;-1.740;2024-02-26T05:30:05;99034.16;;;1.97;100.00
51452;BME280;37521;52.020;-1.740;2024-02-26T05:32:34;99034.31;;;1.91;100.00
51452;BME280;37521;52.020;-1.740;2024-02-26T05:35:04;99044.72;;;1.91;100.00
51452;BME280;37521;52.020;-1.740;2024-02-26T05:37:34;99054.28;;;1.90;100.00
51452;BME280;37521;52.020;-1.740;2024-02-26T05:40:04;99061.16;;;1.93;100.00
51452;BME280;37521;52.020;-1.740;2024-02-26T05:42:33;99066.41;;;1.91;100.00
51452;BME280;37521;52.020;-1.740;2024-02-26T05:45:01;99077.78;;;1.89;100.00
51452;BME280;37521;52.020;-1.740;2024-02-26T05:47:33;99076.91;;;1.88;100.00
51452;BME280;37521;52.020;-1.740;2024-02-26T05:50:02;99083.88;;;1.86;100.00
51452;BME280;37521;52.020;-1.740;2024-02-26T05:52:31;99089.06;;;1.88;100.00
51452;BME280;37521;52.020;-1.740;2024-02-26T05:55:01;99084.75;;;1.87;100.00
51452;BME280;37521;52.020;-1.740;2024-02-26T05:57:30;99101.34;;;1.83;100.00
51452;BME280;37521;52.020;-1.740;2024-02-26T05:59:59;99111.66;;;1.86;100.00
51452;BME280;37521;52.020;-1.740;2024-02-26T06:02:40;99116.97;;;1.83;100.00
51452;BME280;37521;52.020;-1.740;2024-02-26T06:05:09;99110.00;;;1.83;100.00
51452;BME280;37521;52.020;-1.740;2024-02-26T06:07:38;99124.69;;;1.86;100.00
51452;BME280;37521;52.020;-1.740;2024-02-26T06:10:08;99137.69;;;1.87;100.00
51452;BME280;37521;52.020;-1.740;2024-02-26T06:12:37;99140.16;;;1.92;100.00
51452;BME280;37521;52.020;-1.740;2024-02-26T06:15:06;99138.34;;;1.96;100.00
51452;BME280;37521;52.020;-1.740;2024-02-26T06:17:36;99149.66;;;1.93;100.00
51452;BME280;37521;52.020;-1.740;2024-02-26T06:20:06;99149.72;;;1.91;100.00
51452;BME280;37521;52.020;-1.740;2024-02-26T06:22:40;99160.16;;;1.90;100.00
51452;BME280;37521;52.020;-1.740;2024-02-26T06:25:10;99175.84;;;1.88;100.00
51452;BME280;37521;52.020;-1.740;2024-02-26T06:27:38;99169.81;;;1.85;100.00
51452;BME280;37521;52.020;-1.740;2024-02-26T06:30:08;99188.09;;;1.83;100.00
51452;BME280;37521;52.020;-1.740;2024-02-26T06:32:38;99189.94;;;1.78;100.00
51452;BME280;37521;52.020;-1.740;2024-02-26T06:35:07;99190.94;;;1.73;100.00
51452;BME280;37521;52.020;-1.740;2024-02-26T06:37:39;99197.13;;;1.69;100.00
51452;BME280;37521;52.020;-1.740;2024-02-26T06:40:10;99197.97;;;1.69;100.00
51452;BME280;37521;52.020;-1.740;2024-02-26T06:42:38;99198.03;;;1.68;100.00
51452;BME280;37521;52.020;-1.740;2024-02-26T06:45:07;99211.97;;;1.63;100.00
51452;BME280;37521;52.020;-1.740;2024-02-26T06:47:36;99206.03;;;1.58;100.00
51452;BME280;37521;52.020;-1.740;2024-02-26T06:50:05;99212.91;;;1.61;100.00
51452;BME280;37521;52.020;-1.740;2024-02-26T06:52:34;99225.88;;;1.62;100.00
51452;BME280;37521;52.020;-1.740;2024-02-26T06:55:03;99241.50;;;1.62;100.00
51452;BME280;37521;52.020;-1.740;2024-02-26T06:57:37;99253.75;;;1.57;100.00
51452;BME280;37521;52.020;-1.740;2024-02-26T07:00:06;99249.53;;;1.52;100.00
51452;BME280;37521;52.020;-1.740;2024-02-26T07:02:35;99260.88;;;1.49;100.00
51452;BME280;37521;52.020;-1.740;2024-02-26T07:05:06;99256.53;;;1.50;100.00
51452;BME280;37521;52.020;-1.740;2024-02-26T07:07:35;99263.47;;;1.49;100.00
51452;BME280;37521;52.020;-1.740;2024-02-26T07:10:05;99269.63;;;1.45;100.00
51452;BME280;37521;52.020;-1.740;2024-02-26T07:12:33;99282.56;;;1.47;100.00
51452;BME280;37521;52.020;-1.740;2024-02-26T07:15:04;99280.09;;;1.42;100.00
51452;BME280;37521;52.020;-1.740;2024-02-26T07:17:35;99291.41;;;1.41;100.00
51452;BME280;37521;52.020;-1.740;2024-02-26T07:20:05;99287.06;;;1.40;100.00
51452;BME280;37521;52.020;-1.740;2024-02-26T07:22:36;99295.59;;;1.48;100.00
51452;BME280;37521;52.020;-1.740;2024-02-26T07:25:05;99304.19;;;1.50;100.00
51452;BME280;37521;52.020;-1.740;2024-02-26T07:27:36;99301.53;;;1.53;100.00
51452;BME280;37521;52.020;-1.740;2024-02-26T07:30:07;99307.53;;;1.57;100.00
51452;BME280;37521;52.020;-1.740;2024-02-26T07:32:36;99310.03;;;1.61;100.00
51452;BME280;37521;52.020;-1.740;2024-02-26T07:35:05;99316.06;;;1.63;100.00
51452;BME280;37521;52.020;-1.740;2024-02-26T07:37:34;99317.00;;;1.59;100.00
51452;BME280;37521;52.020;-1.740;2024-02-26T07:40:04;99328.31;;;1.58;100.00
51452;BME280;37521;52.020;-1.740;2024-02-26T07:42:33;99322.16;;;1.62;100.00
51452;BME280;37521;52.020;-1.740;2024-02-26T07:45:02;99323.78;;;1.68;100.00
51452;BME280;37521;52.020;-1.740;2024-02-26T07:47:32;99326.25;;;1.73;100.00
51452;BME280;37521;52.020;-1.740;2024-02-26T07:50:03;99334.06;;;1.73;100.00
51452;BME280;37521;52.020;-1.740;2024-02-26T07:52:32;99330.56;;;1.75;100.00
51452;BME280;37521;52.020;-1.740;2024-02-26T07:55:00;99325.28;;;1.78;100.00
51452;BME280;37521;52.020;-1.740;2024-02-26T07:57:33;99336.63;;;1.76;100.00
51452;BME280;37521;52.020;-1.740;2024-02-26T08:00:03;99341.81;;;1.76;100.00
51452;BME280;37521;52.020;-1.740;2024-02-26T08:02:36;99359.16;;;1.77;100.00
51452;BME280;37521;52.020;-1.740;2024-02-26T08:05:05;99358.31;;;1.76;100.00
51452;BME280;37521;52.020;-1.740;2024-02-26T08:07:34;99363.47;;;1.78;100.00
51452;BME280;37521;52.020;-1.740;2024-02-26T08:10:03;99372.94;;;1.82;100.00
51452;BME280;37521;52.020;-1.740;2024-02-26T08:12:32;99369.47;;;1.81;100.00
51452;BME280;37521;52.020;-1.740;2024-02-26T08:15:00;99383.34;;;1.82;100.00
51452;BME280;37521;52.020;-1.740;2024-02-26T08:17:29;99386.75;;;1.84;100.00
51452;BME280;37521;52.020;-1.740;2024-02-26T08:20:01;99397.09;;;1.87;100.00
51452;BME280;37521;52.020;-1.740;2024-02-26T08:22:30;99396.22;;;1.88;100.00
51452;BME280;37521;52.020;-1.740;2024-02-26T08:25:00;99392.78;;;1.87;100.00
51452;BME280;37521;52.020;-1.740;2024-02-26T08:27:32;99390.91;;;1.92;100.00
51452;BME280;37521;52.020;-1.740;2024-02-26T08:30:01;99402.16;;;1.95;100.00
51452;BME280;37521;52.020;-1.740;2024-02-26T08:32:30;99409.03;;;1.97;100.00
51452;BME280;37521;52.020;-1.740;2024-02-26T08:35:01;99408.19;;;1.97;100.00
51452;BME280;37521;52.020;-1.740;2024-02-26T08:37:29;99415.22;;;1.91;100.00
51452;BME280;37521;52.020;-1.740;2024-02-26T08:39:58;99433.50;;;1.90;100.00
51452;BME280;37521;52.020;-1.740;2024-02-26T08:42:32;99433.47;;;1.91;100.00
51452;BME280;37521;52.020;-1.740;2024-02-26T08:45:01;99438.56;;;1.96;100.00
51452;BME280;37521;52.020;-1.740;2024-02-26T08:47:30;99439.47;;;1.94;100.00
51452;BME280;37521;52.020;-1.740;2024-02-26T08:50:01;99443.81;;;1.93;100.00
51452;BME280;37521;52.020;-1.740;2024-02-26T08:52:30;99443.91;;;1.90;100.00
51452;BME280;37521;52.020;-1.740;2024-02-26T08:54:58;99456.81;;;1.96;100.00
51452;BME280;37521;52.020;-1.740;2024-02-26T08:57:27;99468.03;;;1.98;100.00
51452;BME280;37521;52.020;-1.740;2024-02-26T08:59:56;99462.78;;;2.01;100.00
51452;BME280;37521;52.020;-1.740;2024-02-26T09:02:25;99469.69;;;2.02;100.00
51452;BME280;37521;52.020;-1.740;2024-02-26T09:04:54;99462.66;;;2.07;100.00
51452;BME280;37521;52.020;-1.740;2024-02-26T09:07:24;99452.16;;;2.10;100.00
51452;BME280;37521;52.020;-1.740;2024-02-26T09:09:53;99472.91;;;2.15;100.00
51452;BME280;37521;52.020;-1.740;2024-02-26T09:12:22;99476.25;;;2.22;100.00
51452;BME280;37521;52.020;-1.740;2024-02-26T09:14:51;99470.06;;;2.26;100.00
51452;BME280;37521;52.020;-1.740;2024-02-26T09:17:19;99477.88;;;2.26;100.00
51452;BME280;37521;52.020;-1.740;2024-02-26T09:19:48;99488.28;;;2.26;100.00
51452;BME280;37521;52.020;-1.740;2024-02-26T09:22:17;99484.75;;;2.30;100.00
51452;BME280;37521;52.020;-1.740;2024-02-26T09:24:47;99496.75;;;2.37;100.00
51452;BME280;37521;52.020;-1.740;2024-02-26T09:27:17;99493.34;;;2.35;100.00
51452;BME280;37521;52.020;-1.740;2024-02-26T09:29:46;99499.41;;;2.34;100.00
51452;BME280;37521;52.020;-1.740;2024-02-26T09:32:15;99493.34;;;2.35;100.00
51452;BME280;37521;52.020;-1.740;2024-02-26T09:34:45;99503.69;;;2.38;100.00
51452;BME280;37521;52.020;-1.740;2024-02-26T09:37:14;99511.44;;;2.41;100.00
51452;BME280;37521;52.020;-1.740;2024-02-26T09:39:49;99519.09;;;2.47;100.00
51452;BME280;37521;52.020;-1.740;2024-02-26T09:42:19;99520.75;;;2.51;100.00
51452;BME280;37521;52.020;-1.740;2024-02-26T09:44:50;99532.00;;;2.55;100.00
51452;BME280;37521;52.020;-1.740;2024-02-26T09:47:20;99523.31;;;2.54;100.00
51452;BME280;37521;52.020;-1.740;2024-02-26T09:49:52;99533.75;;;2.54;100.00
51452;BME280;37521;52.020;-1.740;2024-02-26T09:52:21;99531.06;;;2.57;100.00
51452;BME280;37521;52.020;-1.740;2024-02-26T09:54:53;99548.34;;;2.61;100.00
51452;BME280;37521;52.020;-1.740;2024-02-26T09:57:22;99536.19;;;2.60;100.00
51452;BME280;37521;52.020;-1.740;2024-02-26T09:59:53;99545.81;;;2.58;100.00
51452;BME280;37521;52.020;-1.740;2024-02-26T10:02:26;99553.56;;;2.61;100.00
51452;BME280;37521;52.020;-1.740;2024-02-26T10:04:57;99555.13;;;2.70;100.00
51452;BME280;37521;52.020;-1.740;2024-02-26T10:07:29;99560.25;;;2.75;100.00
51452;BME280;37521;52.020;-1.740;2024-02-26T10:09:59;99556.88;;;2.69;100.00
51452;BME280;37521;52.020;-1.740;2024-02-26T10:12:29;99562.06;;;2.69;100.00
51452;BME280;37521;52.020;-1.740;2024-02-26T10:14:58;99562.84;;;2.75;100.00
51452;BME280;37521;52.020;-1.740;2024-02-26T10:17:28;99573.94;;;2.83;100.00
51452;BME280;37521;52.020;-1.740;2024-02-26T10:20:11;99578.13;;;2.90;100.00
51452;BME280;37521;52.020;-1.740;2024-02-26T10:22:41;99585.03;;;2.92;100.00
51452;BME280;37521;52.020;-1.740;2024-02-26T10:25:11;99589.38;;;2.92;100.00
51452;BME280;37521;52.020;-1.740;2024-02-26T10:27:40;99584.97;;;2.95;100.00
51452;BME280;37521;52.020;-1.740;2024-02-26T10:30:16;99588.41;;;2.97;100.00
51452;BME280;37521;52.020;-1.740;2024-02-26T10:32:47;99594.47;;;2.98;100.00
51452;BME280;37521;52.020;-1.740;2024-02-26T10:35:17;99597.88;;;3.00;100.00
51452;BME280;37521;52.020;-1.740;2024-02-26T10:37:48;99605.66;;;3.03;100.00
51452;BME280;37521;52.020;-1.740;2024-02-26T10:40:20;99609.03;;;3.07;100.00
51452;BME280;37521;52.020;-1.740;2024-02-26T10:42:50;99608.81;;;3.17;100.00
51452;BME280;37521;52.020;-1.740;2024-02-26T10:45:19;99614.34;;;3.41;100.00
51452;BME280;37521;52.020;-1.740;2024-02-26T10:47:48;99617.47;;;3.57;100.00
51452;BME280;37521;52.020;-1.740;2024-02-26T10:50:17;99619.22;;;3.56;100.00
51452;BME280;37521;52.020;-1.740;2024-02-26T10:52:46;99620.94;;;3.57;100.00
51452;BME280;37521;52.020;-1.740;2024-02-26T10:55:16;99621.41;;;3.73;100.00
51452;BME280;37521;52.020;-1.740;2024-02-26T10:57:52;99632.56;;;3.79;100.00
51452;BME280;37521;52.020;-1.740;2024-02-26T11:00:21;99633.41;;;3.80;100.00
51452;BME280;37521;52.020;-1.740;2024-02-26T11:02:50;99645.44;;;3.87;100.00
51452;BME280;37521;52.020;-1.740;2024-02-26T11:05:20;99655.09;;;3.83;100.00
51452;BME280;37521;52.020;-1.740;2024-02-26T11:07:49;99643.75;;;3.85;100.00
51452;BME280;37521;52.020;-1.740;2024-02-26T11:10:19;99655.09;;;3.83;100.00
51452;BME280;37521;52.020;-1.740;2024-02-26T11:12:49;99655.16;;;3.80;100.00
51452;BME280;37521;52.020;-1.740;2024-02-26T11:15:19;99657.81;;;3.79;100.00
51452;BME280;37521;52.020;-1.740;2024-02-26T11:17:48;99656.97;;;3.78;100.00
51452;BME280;37521;52.020;-1.740;2024-02-26T11:20:19;99662.28;;;3.75;100.00
51452;BME280;37521;52.020;-1.740;2024-02-26T11:22:48;99672.72;;;3.75;100.00
51452;BME280;37521;52.020;-1.740;2024-02-26T11:25:17;99678.03;;;3.71;100.00
51452;BME280;37521;52.020;-1.740;2024-02-26T11:27:51;99671.78;;;3.78;100.00
51452;BME280;37521;52.020;-1.740;2024-02-26T11:30:25;99678.38;;;3.93;100.00
51452;BME280;37521;52.020;-1.740;2024-02-26T11:32:55;99690.19;;;4.07;100.00
51452;BME280;37521;52.020;-1.740;2024-02-26T11:35:24;99678.16;;;4.02;100.00
51452;BME280;37521;52.020;-1.740;2024-02-26T11:37:54;99681.34;;;4.13;100.00
51452;BME280;37521;52.020;-1.740;2024-02-26T11:40:24;99679.75;;;4.42;100.00
51452;BME280;37521;52.020;-1.740;2024-02-26T11:42:55;99680.22;;;4.88;100.00
51452;BME280;37521;52.020;-1.740;2024-02-26T11:45:51;99673.00;;;4.97;100.00
51452;BME280;37521;52.020;-1.740;2024-02-26T11:48:28;99684.13;;;5.03;100.00
51452;BME280;37521;52.020;-1.740;2024-02-26T11:50:58;99680.22;;;4.88;100.00
51452;BME280;37521;52.020;-1.740;2024-02-26T11:53:28;99691.94;;;4.74;100.00
51452;BME280;37521;52.020;-1.740;2024-02-26T11:56:20;99706.94;;;4.98;100.00
51452;BME280;37521;52.020;-1.740;2024-02-26T11:58:59;99699.19;;;5.25;100.00
51452;BME280;37521;52.020;-1.740;2024-02-26T12:01:39;99707.34;;;5.14;100.00
51452;BME280;37521;52.020;-1.740;2024-02-26T12:04:12;99719.06;;;5.01;100.00
51452;BME280;37521;52.020;-1.740;2024-02-26T12:06:45;99715.34;;;4.78;100.00
51452;BME280;37521;52.020;-1.740;2024-02-26T12:09:34;99717.75;;;4.55;100.00
51452;BME280;37521;52.020;-1.740;2024-02-26T12:12:05;99726.81;;;4.40;100.00
51452;BME280;37521;52.020;-1.740;2024-02-26T12:14:37;99731.28;;;4.36;100.00
51452;BME280;37521;52.020;-1.740;2024-02-26T12:17:07;99734.59;;;4.43;100.00
51452;BME280;37521;52.020;-1.740;2024-02-26T12:19:43;99730.94;;;4.50;100.00
51452;BME280;37521;52.020;-1.740;2024-02-26T12:22:13;99741.28;;;4.53;100.00
51452;BME280;37521;52.020;-1.740;2024-02-26T12:24:43;99738.97;;;4.43;100.00
51452;BME280;37521;52.020;-1.740;2024-02-26T12:27:11;99737.31;;;4.38;100.00
51452;BME280;37521;52.020;-1.740;2024-02-26T12:29:43;99748.72;;;4.36;100.00
51452;BME280;37521;52.020;-1.740;2024-02-26T12:32:12;99744.41;;;4.33;100.00
51452;BME280;37521;52.020;-1.740;2024-02-26T12:34:41;99735.53;;;4.41;100.00
51452;BME280;37521;52.020;-1.740;2024-02-26T12:37:10;99733.81;;;4.72;100.00
51452;BME280;37521;52.020;-1.740;2024-02-26T12:39:39;99738.63;;;4.89;100.00
51452;BME280;37521;52.020;-1.740;2024-02-26T12:42:08;99756.94;;;4.89;100.00
51452;BME280;37521;52.020;-1.740;2024-02-26T12:44:38;99751.97;;;4.78;100.00
51452;BME280;37521;52.020;-1.740;2024-02-26T12:47:09;99753.09;;;4.70;100.00
51452;BME280;37521;52.020;-1.740;2024-02-26T12:49:47;99763.59;;;4.68;100.00
51452;BME280;37521;52.020;-1.740;2024-02-26T12:52:16;99767.00;;;4.70;100.00
51452;BME280;37521;52.020;-1.740;2024-02-26T12:54:46;99768.81;;;4.68;100.00
51452;BME280;37521;52.020;-1.740;2024-02-26T12:57:15;99766.44;;;4.59;100.00
51452;BME280;37521;52.020;-1.740;2024-02-26T12:59:44;99764.06;;;4.50;100.00
51452;BME280;37521;52.020;-1.740;2024-02-26T13:02:14;99765.06;;;4.44;100.00
51452;BME280;37521;52.020;-1.740;2024-02-26T13:04:44;99773.38;;;4.60;100.00